EST,Max TemperatureF,Mean TemperatureF,Min TemperatureF,Max Dew PointF,MeanDew PointF,Min DewpointF,Max Humidity, Mean Humidity, Min Humidity, Max Sea Level PressureIn, Mean Sea Level PressureIn, Min Sea Level PressureIn, Max VisibilityMiles, Mean VisibilityMiles, Min VisibilityMiles, Max Wind SpeedMPH, Mean Wind SpeedMPH, Max Gust SpeedMPH,PrecipitationIn, CloudCover, Events, WindDirDegrees
2013-2-1,17,12,6,8,2,-2,76,65,54,30.43,30.31,30.09,10,8,1,25,12,33,T,5,Snow,265
2013-2-2,30,24,17,25,19,8,88,78,67,30.29,30.09,29.98,10,5,1,20,10,24,0.02,8,Snow,213
2013-2-3,26,19,12,20,14,7,88,78,67,30.12,30.03,29.97,10,7,2,18,9,22,T,7,Snow,267
2013-2-4,36,27,18,31,25,13,92,78,63,30.11,29.87,29.77,10,6,0,21,9,25,0.01,6,Fog-Snow,181
2013-2-5,38,28,17,30,25,16,92,81,70,30.02,29.92,29.84,10,6,1,15,7,20,0.00,5,,281
2013-2-6,36,32,28,28,24,21,85,73,61,30.27,30.19,30.05,10,8,6,14,6,18,0.00,6,,100
2013-2-7,54,42,30,45,34,26,85,69,52,30.19,29.97,29.79,10,7,2,15,6,29,0.14,2,Rain,134
2013-2-8,46,38,30,43,32,24,86,78,69,30.35,30.05,29.79,10,9,1,25,13,31,0.02,7,Rain,315
2013-2-9,42,33,23,24,22,20,81,65,49,30.42,30.33,30.18,10,10,6,13,6,17,0.00,1,,113
2013-2-10,54,44,34,48,35,22,83,67,50,30.16,29.92,29.72,10,10,5,26,14,37,0.01,6,Rain,161
2013-2-11,51,43,34,48,33,25,89,71,53,30.05,29.86,29.71,10,10,10,30,16,38,T,5,,237
2013-2-12,48,38,27,28,26,23,82,64,45,30.14,30.04,29.93,10,9,6,15,6,18,0.00,0,,275
2013-2-13,44,37,29,30,26,24,92,71,49,29.91,29.84,29.78,10,8,5,13,6,15,0.00,4,,308
2013-2-14,53,43,33,36,32,27,89,70,50,30.00,29.86,29.80,10,8,5,22,13,30,0.00,4,,218
2013-2-15,40,32,24,30,25,18,85,72,59,30.17,30.08,29.98,10,9,1,23,7,29,T,5,Snow,287
2013-2-16,29,25,21,19,14,9,81,66,50,30.14,30.11,30.07,10,9,2,21,10,25,T,6,Snow,290
2013-2-17,33,23,13,14,10,5,80,56,32,30.25,30.18,30.10,10,10,9,13,6,16,T,2,Snow,334
2013-2-18,60,44,28,45,28,12,93,67,40,30.15,29.89,29.62,10,10,6,35,18,49,0.14,3,Rain,172
2013-2-19,48,36,24,45,23,12,93,76,58,30.14,29.87,29.60,10,9,7,32,21,43,0.10,8,Rain-Snow,267
2013-2-20,29,22,15,16,11,7,73,60,46,30.32,30.27,30.15,10,10,4,20,11,30,T,3,Snow,314
2013-2-21,34,26,18,27,19,12,80,68,56,30.34,30.20,30.02,10,8,2,25,11,33,0.19,6,Rain-Snow,74
2013-2-22,38,35,31,34,31,27,96,86,76,30.00,29.90,29.83,10,5,0,23,11,29,0.08,8,Fog-Rain,174
2013-2-23,40,34,27,27,22,19,78,66,54,30.00,29.97,29.92,10,10,7,14,8,18,0.00,2,,275
2013-2-24,43,33,23,25,22,19,81,63,45,30.14,30.08,29.98,10,9,5,15,5,17,0.00,1,,318
2013-2-25,46,36,25,28,24,20,81,63,45,30.16,30.06,29.86,10,10,7,17,10,23,0.00,0,,86
2013-2-26,45,40,35,43,37,25,92,76,59,29.83,29.48,29.35,10,5,2,24,12,31,0.60,8,Rain,119
2013-2-27,43,39,34,39,32,26,100,85,70,29.71,29.63,29.47,10,6,1,24,15,31,0.01,8,Rain-Snow,236
2013-2-28,39,36,33,34,31,28,89,83,76,29.98,29.82,29.68,10,7,2,18,12,22,T,8,Rain-Snow,287